sensor_id;sensor_type;location;lat;lon;timestamp;pressure;altitude;pressure_sealevel;temperature;humidity
80938;BME280;70395;51.382;7.074;2023-09-19T00:00:38;99629.06;;;17.85;62.04
80938;BME280;70395;51.382;7.074;2023-09-19T00:03:06;99628.47;;;17.83;62.63
80938;BME280;70395;51.382;7.074;2023-09-19T00:05:35;99635.34;;;17.79;62.13
80938;BME280;70395;51.382;7.074;2023-09-19T00:08:02;99641.59;;;17.79;62.40
80938;BME280;70395;51.382;7.074;2023-09-19T00:10:31;99648.28;;;17.77;63.01
80938;BME280;70395;51.382;7.074;2023-09-19T00:13:04;99650.56;;;17.73;62.78
80938;BME280;70395;51.382;7.074;2023-09-19T00:15:37;99649.34;;;17.69;62.96
80938;BME280;70395;51.382;7.074;2023-09-19T00:18:04;99642.22;;;17.68;62.68
80938;BME280;70395;51.382;7.074;2023-09-19T00:20:36;99655.56;;;17.63;62.58
80938;BME280;70395;51.382;7.074;2023-09-19T00:23:02;99649.53;;;17.61;62.79
80938;BME280;70395;51.382;7.074;2023-09-19T00:25:36;99650.78;;;17.58;62.58
80938;BME280;70395;51.382;7.074;2023-09-19T00:28:05;99661.84;;;17.56;62.56
80938;BME280;70395;51.382;7.074;2023-09-19T00:30:32;99663.72;;;17.56;62.42
80938;BME280;70395;51.382;7.074;2023-09-19T00:32:58;99656.81;;;17.53;62.39
80938;BME280;70395;51.382;7.074;2023-09-19T00:35:24;99651.81;;;17.50;61.89
80938;BME280;70395;51.382;7.074;2023-09-19T00:37:51;99662.03;;;17.48;62.51
80938;BME280;70395;51.382;7.074;2023-09-19T00:40:17;99660.56;;;17.45;62.26
80938;BME280;70395;51.382;7.074;2023-09-19T00:42:47;99669.31;;;17.41;62.15
80938;BME280;70395;51.382;7.074;2023-09-19T00:45:15;99661.41;;;17.39;61.77
80938;BME280;70395;51.382;7.074;2023-09-19T00:47:48;99670.78;;;17.37;62.38
80938;BME280;70395;51.382;7.074;2023-09-19T00:50:23;99669.31;;;17.34;62.46
80938;BME280;70395;51.382;7.074;2023-09-19T00:52:55;99674.13;;;17.32;61.90
80938;BME280;70395;51.382;7.074;2023-09-19T00:55:23;99678.69;;;17.31;62.07
80938;BME280;70395;51.382;7.074;2023-09-19T00:57:49;99675.16;;;17.31;61.93
80938;BME280;70395;51.382;7.074;2023-09-19T01:00:16;99671.81;;;17.29;61.90
80938;BME280;70395;51.382;7.074;2023-09-19T01:02:45;99677.44;;;17.27;61.96
80938;BME280;70395;51.382;7.074;2023-09-19T01:05:12;99681.19;;;17.26;61.77
80938;BME280;70395;51.382;7.074;2023-09-19T01:07:38;99681.41;;;17.25;61.96
80938;BME280;70395;51.382;7.074;2023-09-19T01:10:11;99688.91;;;17.22;61.67
80938;BME280;70395;51.382;7.074;2023-09-19T01:16:07;99696.19;;;17.15;61.64
80938;BME280;70395;51.382;7.074;2023-09-19T01:22:33;99687.59;;;17.11;61.85
80938;BME280;70395;51.382;7.074;2023-09-19T01:26:01;99692.59;;;17.08;61.49
80938;BME280;70395;51.382;7.074;2023-09-19T01:28:32;99700.72;;;17.08;62.16
80938;BME280;70395;51.382;7.074;2023-09-19T01:31:03;99711.13;;;17.11;62.10
80938;BME280;70395;51.382;7.074;2023-09-19T01:33:59;99701.97;;;17.05;61.85
80938;BME280;70395;51.382;7.074;2023-09-19T01:36:34;99704.66;;;17.05;62.04
80938;BME280;70395;51.382;7.074;2023-09-19T01:39:07;99707.56;;;17.04;61.61
80938;BME280;70395;51.382;7.074;2023-09-19T01:42:15;99714.44;;;16.99;61.91
80938;BME280;70395;51.382;7.074;2023-09-19T01:44:51;99716.91;;;17.01;61.73
80938;BME280;70395;51.382;7.074;2023-09-19T01:47:33;99721.94;;;16.97;61.83
80938;BME280;70395;51.382;7.074;2023-09-19T01:50:30;99729.41;;;16.95;62.49
80938;BME280;70395;51.382;7.074;2023-09-19T01:53:06;99726.50;;;16.97;62.17
80938;BME280;70395;51.382;7.074;2023-09-19T01:55:41;99722.13;;;16.96;62.29
80938;BME280;70395;51.382;7.074;2023-09-19T02:00:49;99729.22;;;16.97;62.04
80938;BME280;70395;51.382;7.074;2023-09-19T02:03:21;99726.28;;;16.98;61.98
80938;BME280;70395;51.382;7.074;2023-09-19T02:05:51;99723.41;;;17.00;61.33
80938;BME280;70395;51.382;7.074;2023-09-19T02:08:20;99724.88;;;17.03;61.55
80938;BME280;70395;51.382;7.074;2023-09-19T02:10:49;99731.13;;;17.03;61.46
80938;BME280;70395;51.382;7.074;2023-09-19T02:13:19;99731.31;;;17.02;61.11
80938;BME280;70395;51.382;7.074;2023-09-19T02:15:45;99742.97;;;17.02;61.63
80938;BME280;70395;51.382;7.074;2023-09-19T02:18:14;99740.28;;;17.02;61.46
80938;BME280;70395;51.382;7.074;2023-09-19T02:20:41;99743.19;;;17.00;61.20
80938;BME280;70395;51.382;7.074;2023-09-19T02:23:07;99750.47;;;17.00;61.24
80938;BME280;70395;51.382;7.074;2023-09-19T02:25:34;99751.50;;;16.99;61.74
80938;BME280;70395;51.382;7.074;2023-09-19T02:28:01;99754.22;;;16.99;61.54
80938;BME280;70395;51.382;7.074;2023-09-19T02:30:29;99748.16;;;16.97;61.65
80938;BME280;70395;51.382;7.074;2023-09-19T02:32:55;99753.56;;;16.97;61.41
80938;BME280;70395;51.382;7.074;2023-09-19T02:35:21;99763.78;;;16.95;61.43
80938;BME280;70395;51.382;7.074;2023-09-19T02:37:48;99761.28;;;16.93;61.48
80938;BME280;70395;51.382;7.074;2023-09-19T02:40:15;99765.22;;;16.91;61.35
80938;BME280;70395;51.382;7.074;2023-09-19T02:42:46;99757.28;;;16.89;61.61
80938;BME280;70395;51.382;7.074;2023-09-19T02:45:19;99764.78;;;16.87;61.58
80938;BME280;70395;51.382;7.074;2023-09-19T02:47:46;99764.78;;;16.87;61.44
80938;BME280;70395;51.382;7.074;2023-09-19T02:50:14;99766.00;;;16.84;61.45
80938;BME280;70395;51.382;7.074;2023-09-19T02:52:45;99762.69;;;16.82;61.03
80938;BME280;70395;51.382;7.074;2023-09-19T02:55:16;99771.00;;;16.81;61.69
80938;BME280;70395;51.382;7.074;2023-09-19T02:57:54;99772.44;;;16.76;61.47
80938;BME280;70395;51.382;7.074;2023-09-19T03:00:23;99775.13;;;16.76;61.15
80938;BME280;70395;51.382;7.074;2023-09-19T03:02:58;99769.50;;;16.71;60.66
80938;BME280;70395;51.382;7.074;2023-09-19T03:05:25;99784.69;;;16.72;60.62
80938;BME280;70395;51.382;7.074;2023-09-19T03:07:52;99787.63;;;16.71;60.70
80938;BME280;70395;51.382;7.074;2023-09-19T03:10:20;99792.19;;;16.70;60.26
80938;BME280;70395;51.382;7.074;2023-09-19T03:12:47;99786.13;;;16.68;60.55
80938;BME280;70395;51.382;7.074;2023-09-19T03:15:14;99790.72;;;16.68;60.34
80938;BME280;70395;51.382;7.074;2023-09-19T03:17:44;99789.25;;;16.65;60.27
80938;BME280;70395;51.382;7.074;2023-09-19T03:20:11;99790.09;;;16.65;59.92
80938;BME280;70395;51.382;7.074;2023-09-19T03:22:39;99794.66;;;16.65;60.09
80938;BME280;70395;51.382;7.074;2023-09-19T03:25:08;99795.50;;;16.65;59.54
80938;BME280;70395;51.382;7.074;2023-09-19T03:27:35;99787.59;;;16.64;60.08
80938;BME280;70395;51.382;7.074;2023-09-19T03:30:01;99789.25;;;16.65;59.41
80938;BME280;70395;51.382;7.074;2023-09-19T03:32:31;99787.59;;;16.64;59.66
80938;BME280;70395;51.382;7.074;2023-09-19T03:34:57;99792.34;;;16.62;59.62
80938;BME280;70395;51.382;7.074;2023-09-19T03:37:22;99795.47;;;16.59;59.60
80938;BME280;70395;51.382;7.074;2023-09-19T03:39:48;99799.19;;;16.58;59.01
80938;BME280;70395;51.382;7.074;2023-09-19T03:42:14;99795.00;;;16.55;59.53
80938;BME280;70395;51.382;7.074;2023-09-19T03:44:40;99788.97;;;16.53;59.24
80938;BME280;70395;51.382;7.074;2023-09-19T03:47:05;99796.44;;;16.51;59.50
80938;BME280;70395;51.382;7.074;2023-09-19T03:49:32;99788.50;;;16.49;59.58
80938;BME280;70395;51.382;7.074;2023-09-19T03:51:59;99793.91;;;16.49;59.41
80938;BME280;70395;51.382;7.074;2023-09-19T03:54:25;99794.97;;;16.48;59.36
80938;BME280;70395;51.382;7.074;2023-09-19T03:56:51;99787.06;;;16.47;59.05
80938;BME280;70395;51.382;7.074;2023-09-19T03:59:17;99792.66;;;16.45;59.26
80938;BME280;70395;51.382;7.074;2023-09-19T04:01:43;99791.63;;;16.46;59.05
80938;BME280;70395;51.382;7.074;2023-09-19T04:04:09;99789.94;;;16.45;59.40
80938;BME280;70395;51.382;7.074;2023-09-19T04:06:35;99783.91;;;16.43;59.37
80938;BME280;70395;51.382;7.074;2023-09-19T04:09:03;99782.88;;;16.44;59.58
80938;BME280;70395;51.382;7.074;2023-09-19T04:11:30;99791.16;;;16.42;58.85
80938;BME280;70395;51.382;7.074;2023-09-19T04:13:57;99788.47;;;16.42;59.12
80938;BME280;70395;51.382;7.074;2023-09-19T04:16:22;99785.97;;;16.41;59.00
80938;BME280;70395;51.382;7.074;2023-09-19T04:18:48;99782.41;;;16.40;59.32
80938;BME280;70395;51.382;7.074;2023-09-19T04:21:14;99795.56;;;16.43;59.35
80938;BME280;70395;51.382;7.074;2023-09-19T04:23:40;99793.69;;;16.44;59.35
80938;BME280;70395;51.382;7.074;2023-09-19T04:26:06;99794.72;;;16.43;59.59
80938;BME280;70395;51.382;7.074;2023-09-19T04:28:32;99796.59;;;16.42;59.56
80938;BME280;70395;51.382;7.074;2023-09-19T04:31:00;99796.59;;;16.42;59.81
80938;BME280;70395;51.382;7.074;2023-09-19T04:33:26;99790.53;;;16.40;59.81
80938;BME280;70395;51.382;7.074;2023-09-19T04:35:52;99803.03;;;16.41;59.71
80938;BME280;70395;51.382;7.074;2023-09-19T04:38:19;99796.78;;;16.41;59.32
80938;BME280;70395;51.382;7.074;2023-09-19T04:40:48;99800.34;;;16.41;59.33
80938;BME280;70395;51.382;7.074;2023-09-19T04:43:14;99803.03;;;16.41;59.42
80938;BME280;70395;51.382;7.074;2023-09-19T04:45:41;99793.25;;;16.40;59.73
80938;BME280;70395;51.382;7.074;2023-09-19T04:48:06;99800.53;;;16.40;59.31
80938;BME280;70395;51.382;7.074;2023-09-19T04:50:34;99798.03;;;16.38;59.80
80938;BME280;70395;51.382;7.074;2023-09-19T04:53:00;99811.53;;;16.38;60.05
80938;BME280;70395;51.382;7.074;2023-09-19T04:55:27;99799.03;;;16.37;59.62
80938;BME280;70395;51.382;7.074;2023-09-19T04:57:53;99808.22;;;16.36;59.61
80938;BME280;70395;51.382;7.074;2023-09-19T05:00:23;99811.09;;;16.35;59.79
80938;BME280;70395;51.382;7.074;2023-09-19T05:02:51;99799.44;;;16.34;59.53
80938;BME280;70395;51.382;7.074;2023-09-19T05:05:18;99817.34;;;16.35;59.81
80938;BME280;70395;51.382;7.074;2023-09-19T05:07:46;99816.50;;;16.35;60.15
80938;BME280;70395;51.382;7.074;2023-09-19T05:10:12;99821.09;;;16.34;59.82
80938;BME280;70395;51.382;7.074;2023-09-19T05:12:39;99831.91;;;16.34;60.36
80938;BME280;70395;51.382;7.074;2023-09-19T05:15:09;99836.50;;;16.34;59.54
80938;BME280;70395;51.382;7.074;2023-09-19T05:17:36;99843.75;;;16.33;59.71
80938;BME280;70395;51.382;7.074;2023-09-19T05:20:03;99841.06;;;16.33;59.64
80938;BME280;70395;51.382;7.074;2023-09-19T05:22:37;99857.50;;;16.31;60.14
80938;BME280;70395;51.382;7.074;2023-09-19T05:25:06;99859.16;;;16.32;59.77
80938;BME280;70395;51.382;7.074;2023-09-19T05:27:35;99869.13;;;16.32;59.67
80938;BME280;70395;51.382;7.074;2023-09-19T05:30:01;99867.09;;;16.34;59.37
80938;BME280;70395;51.382;7.074;2023-09-19T05:32:27;99881.44;;;16.35;60.07
80938;BME280;70395;51.382;7.074;2023-09-19T05:34:53;99884.81;;;16.37;60.10
80938;BME280;70395;51.382;7.074;2023-09-19T05:37:19;99885.44;;;16.39;60.26
80938;BME280;70395;51.382;7.074;2023-09-19T05:39:48;99886.72;;;16.43;59.62
80938;BME280;70395;51.382;7.074;2023-09-19T05:42:13;99885.28;;;16.47;59.82
80938;BME280;70395;51.382;7.074;2023-09-19T05:44:39;99885.75;;;16.51;59.99
80938;BME280;70395;51.382;7.074;2023-09-19T05:47:05;99886.19;;;16.54;59.20
80938;BME280;70395;51.382;7.074;2023-09-19T05:49:37;99893.91;;;16.58;59.19
80938;BME280;70395;51.382;7.074;2023-09-19T05:52:06;99895.84;;;16.64;59.10
80938;BME280;70395;51.382;7.074;2023-09-19T05:54:32;99884.44;;;16.69;59.58
80938;BME280;70395;51.382;7.074;2023-09-19T05:57:03;99898.19;;;16.74;59.33
80938;BME280;70395;51.382;7.074;2023-09-19T05:59:29;99903.66;;;16.81;59.31
80938;BME280;70395;51.382;7.074;2023-09-19T06:01:55;99908.09;;;16.88;58.80
80938;BME280;70395;51.382;7.074;2023-09-19T06:04:21;99905.44;;;16.95;59.29
80938;BME280;70395;51.382;7.074;2023-09-19T06:06:47;99913.84;;;17.07;58.53
80938;BME280;70395;51.382;7.074;2023-09-19T06:09:14;99907.25;;;17.17;58.50
80938;BME280;70395;51.382;7.074;2023-09-19T06:11:43;99915.03;;;17.27;58.60
80938;BME280;70395;51.382;7.074;2023-09-19T06:14:09;99908.41;;;17.36;58.59
80938;BME280;70395;51.382;7.074;2023-09-19T06:16:36;99904.47;;;17.45;58.35
80938;BME280;70395;51.382;7.074;2023-09-19T06:19:03;99911.59;;;17.53;57.83
80938;BME280;70395;51.382;7.074;2023-09-19T06:21:32;99908.09;;;17.60;57.30
80938;BME280;70395;51.382;7.074;2023-09-19T06:23:58;99912.06;;;17.64;57.20
80938;BME280;70395;51.382;7.074;2023-09-19T06:26:24;99900.84;;;17.67;57.48
80938;BME280;70395;51.382;7.074;2023-09-19T06:28:52;99906.66;;;17.71;57.61
80938;BME280;70395;51.382;7.074;2023-09-19T06:31:18;99907.13;;;17.74;56.92
80938;BME280;70395;51.382;7.074;2023-09-19T06:33:44;99908.38;;;17.78;57.13
80938;BME280;70395;51.382;7.074;2023-09-19T06:36:10;99906.28;;;17.81;56.93
80938;BME280;70395;51.382;7.074;2023-09-19T06:38:36;99912.16;;;17.84;56.93
80938;BME280;70395;51.382;7.074;2023-09-19T06:41:04;99908.00;;;17.88;56.82
80938;BME280;70395;51.382;7.074;2023-09-19T06:43:33;99901.31;;;17.91;56.70
80938;BME280;70395;51.382;7.074;2023-09-19T06:46:03;99903.59;;;17.94;57.04
80938;BME280;70395;51.382;7.074;2023-09-19T06:48:30;99904.25;;;17.96;56.62
80938;BME280;70395;51.382;7.074;2023-09-19T06:50:56;99909.25;;;17.99;56.71
80938;BME280;70395;51.382;7.074;2023-09-19T06:53:24;99904.25;;;18.03;57.08
80938;BME280;70395;51.382;7.074;2023-09-19T06:55:51;99905.50;;;18.07;56.83
80938;BME280;70395;51.382;7.074;2023-09-19T06:58:17;99911.78;;;18.15;56.75
80938;BME280;70395;51.382;7.074;2023-09-19T07:00:43;99916.63;;;18.19;56.70
80938;BME280;70395;51.382;7.074;2023-09-19T07:03:10;99913.09;;;18.26;56.46
80938;BME280;70395;51.382;7.074;2023-09-19T07:05:40;99929.59;;;18.31;56.02
80938;BME280;70395;51.382;7.074;2023-09-19T07:08:08;99922.72;;;18.35;56.12
80938;BME280;70395;51.382;7.074;2023-09-19T07:10:36;99917.28;;;18.42;56.28
80938;BME280;70395;51.382;7.074;2023-09-19T07:13:07;99926.50;;;18.48;55.93
80938;BME280;70395;51.382;7.074;2023-09-19T07:15:37;99913.53;;;18.56;56.10
80938;BME280;70395;51.382;7.074;2023-09-19T07:18:13;99921.47;;;18.65;55.49
80938;BME280;70395;51.382;7.074;2023-09-19T07:20:41;99924.81;;;18.74;55.82
80938;BME280;70395;51.382;7.074;2023-09-19T07:23:13;99937.34;;;18.82;56.00
80938;BME280;70395;51.382;7.074;2023-09-19T07:25:44;99937.16;;;18.90;55.44
80938;BME280;70395;51.382;7.074;2023-09-19T07:28:09;99940.69;;;18.97;54.93
80938;BME280;70395;51.382;7.074;2023-09-19T07:30:38;99938.97;;;19.03;55.33
80938;BME280;70395;51.382;7.074;2023-09-19T07:33:05;99938.78;;;19.11;55.22
80938;BME280;70395;51.382;7.074;2023-09-19T07:35:31;99936.69;;;19.20;55.01
80938;BME280;70395;51.382;7.074;2023-09-19T07:37:57;99941.91;;;19.29;55.01
80938;BME280;70395;51.382;7.074;2023-09-19T07:40:24;99929.13;;;19.36;54.49
80938;BME280;70395;51.382;7.074;2023-09-19T07:42:57;99937.03;;;19.44;54.56
80938;BME280;70395;51.382;7.074;2023-09-19T07:45:28;99933.06;;;19.54;54.21
80938;BME280;70395;51.382;7.074;2023-09-19T07:47:55;99944.09;;;19.66;54.05
80938;BME280;70395;51.382;7.074;2023-09-19T07:50:21;99932.53;;;19.77;53.98
80938;BME280;70395;51.382;7.074;2023-09-19T07:52:49;99940.44;;;19.86;53.53
80938;BME280;70395;51.382;7.074;2023-09-19T07:55:19;99941.44;;;19.91;53.00
80938;BME280;70395;51.382;7.074;2023-09-19T07:57:55;99940.59;;;19.98;53.16
80938;BME280;70395;51.382;7.074;2023-09-19T08:00:21;99943.88;;;20.07;53.42
80938;BME280;70395;51.382;7.074;2023-09-19T08:02:46;99943.06;;;20.13;52.70
80938;BME280;70395;51.382;7.074;2023-09-19T08:05:14;99951.38;;;20.18;52.51
80938;BME280;70395;51.382;7.074;2023-09-19T08:07:45;99948.47;;;20.20;52.32
80938;BME280;70395;51.382;7.074;2023-09-19T08:10:15;99949.06;;;20.22;52.46
80938;BME280;70395;51.382;7.074;2023-09-19T08:12:45;99958.69;;;20.24;52.56
80938;BME280;70395;51.382;7.074;2023-09-19T08:15:16;99958.03;;;20.29;52.42
80938;BME280;70395;51.382;7.074;2023-09-19T08:17:43;99969.09;;;20.34;52.22
80938;BME280;70395;51.382;7.074;2023-09-19T08:20:10;99963.84;;;20.40;52.08
80938;BME280;70395;51.382;7.074;2023-09-19T08:22:51;99970.69;;;20.49;52.34
80938;BME280;70395;51.382;7.074;2023-09-19T08:25:23;99967.84;;;20.63;52.21
80938;BME280;70395;51.382;7.074;2023-09-19T08:27:52;99969.41;;;20.77;51.67
80938;BME280;70395;51.382;7.074;2023-09-19T08:30:21;99965.66;;;20.97;51.34
80938;BME280;70395;51.382;7.074;2023-09-19T08:32:58;99975.38;;;21.19;51.12
80938;BME280;70395;51.382;7.074;2023-09-19T08:35:24;99976.97;;;21.45;49.82
80938;BME280;70395;51.382;7.074;2023-09-19T08:37:50;99968.56;;;21.66;50.23
80938;BME280;70395;51.382;7.074;2023-09-19T08:40:17;99965.88;;;21.78;49.63
80938;BME280;70395;51.382;7.074;2023-09-19T08:42:54;99981.06;;;21.92;49.29
80938;BME280;70395;51.382;7.074;2023-09-19T08:45:22;99971.59;;;22.26;48.92
80938;BME280;70395;51.382;7.074;2023-09-19T08:48:22;99979.28;;;22.60;48.42
80938;BME280;70395;51.382;7.074;2023-09-19T08:50:51;99978.28;;;22.97;47.34
80938;BME280;70395;51.382;7.074;2023-09-19T08:54:24;99984.56;;;23.58;46.88
80938;BME280;70395;51.382;7.074;2023-09-19T08:56:54;99986.66;;;24.09;46.09
80938;BME280;70395;51.382;7.074;2023-09-19T08:59:23;99980.38;;;24.38;44.41
80938;BME280;70395;51.382;7.074;2023-09-19T09:01:55;99974.94;;;24.55;44.03
80938;BME280;70395;51.382;7.074;2023-09-19T09:04:23;99967.88;;;24.77;43.71
80938;BME280;70395;51.382;7.074;2023-09-19T09:06:53;99981.81;;;24.92;43.79
80938;BME280;70395;51.382;7.074;2023-09-19T09:09:20;99974.94;;;25.07;42.38
80938;BME280;70395;51.382;7.074;2023-09-19T09:11:48;99979.66;;;25.29;41.93
80938;BME280;70395;51.382;7.074;2023-09-19T09:14:20;99976.53;;;25.42;41.55
80938;BME280;70395;51.382;7.074;2023-09-19T09:16:46;99980.34;;;25.64;41.39
80938;BME280;70395;51.382;7.074;2023-09-19T09:19:14;99980.88;;;25.83;41.61
80938;BME280;70395;51.382;7.074;2023-09-19T09:21:46;99979.56;;;26.14;40.82
80938;BME280;70395;51.382;7.074;2023-09-19T09:24:31;99973.75;;;26.38;40.63
80938;BME280;70395;51.382;7.074;2023-09-19T09:27:05;99965.81;;;26.69;39.42
80938;BME280;70395;51.382;7.074;2023-09-19T09:29:51;99975.81;;;27.24;39.25
80938;BME280;70395;51.382;7.074;2023-09-19T09:32:18;99977.97;;;27.76;36.95
80938;BME280;70395;51.382;7.074;2023-09-19T09:35:07;99978.91;;;27.92;36.65
80938;BME280;70395;51.382;7.074;2023-09-19T09:37:36;99969.28;;;28.10;36.51
80938;BME280;70395;51.382;7.074;2023-09-19T09:40:05;99965.47;;;28.32;36.49
80938;BME280;70395;51.382;7.074;2023-09-19T09:42:39;99972.09;;;28.26;35.62
80938;BME280;70395;51.382;7.074;2023-09-19T09:45:32;99968.47;;;28.20;36.08
80938;BME280;70395;51.382;7.074;2023-09-19T09:47:59;99969.31;;;28.21;35.51
80938;BME280;70395;51.382;7.074;2023-09-19T09:50:47;99971.78;;;28.22;35.54
80938;BME280;70395;51.382;7.074;2023-09-19T09:53:24;99964.88;;;28.15;34.62
80938;BME280;70395;51.382;7.074;2023-09-19T09:58:27;99970.97;;;27.42;35.62
80938;BME280;70395;51.382;7.074;2023-09-19T10:00:59;99976.13;;;27.28;35.54
80938;BME280;70395;51.382;7.074;2023-09-19T10:03:36;99977.28;;;26.99;36.43
80938;BME280;70395;51.382;7.074;2023-09-19T10:06:07;99966.38;;;26.71;36.70
80938;BME280;70395;51.382;7.074;2023-09-19T10:09:02;99962.75;;;26.65;36.09
80938;BME280;70395;51.382;7.074;2023-09-19T10:11:45;99969.16;;;26.43;36.51
80938;BME280;70395;51.382;7.074;2023-09-19T10:14:15;99967.91;;;26.29;36.81
80938;BME280;70395;51.382;7.074;2023-09-19T10:16:53;99966.59;;;26.64;36.47
80938;BME280;70395;51.382;7.074;2023-09-19T10:19:54;99952.81;;;26.97;35.93
80938;BME280;70395;51.382;7.074;2023-09-19T10:22:24;99963.84;;;27.51;35.00
80938;BME280;70395;51.382;7.074;2023-09-19T10:24:53;99952.22;;;28.19;34.43
80938;BME280;70395;51.382;7.074;2023-09-19T10:27:22;99942.03;;;28.98;33.73
80938;BME280;70395;51.382;7.074;2023-09-19T10:29:53;99938.16;;;29.86;32.17
80938;BME280;70395;51.382;7.074;2023-09-19T10:32:23;99935.28;;;30.42;32.00
80938;BME280;70395;51.382;7.074;2023-09-19T10:34:49;99929.63;;;30.83;30.93
80938;BME280;70395;51.382;7.074;2023-09-19T10:37:17;99936.22;;;30.62;30.75
80938;BME280;70395;51.382;7.074;2023-09-19T10:39:49;99944.56;;;30.57;31.20
80938;BME280;70395;51.382;7.074;2023-09-19T10:42:20;99939.41;;;30.75;30.07
80938;BME280;70395;51.382;7.074;2023-09-19T10:44:51;99943.06;;;31.24;29.95
80938;BME280;70395;51.382;7.074;2023-09-19T10:47:20;99944.88;;;31.34;29.45
80938;BME280;70395;51.382;7.074;2023-09-19T10:49:49;99941.09;;;31.00;29.33
80938;BME280;70395;51.382;7.074;2023-09-19T10:52:21;99932.22;;;31.04;29.60
80938;BME280;70395;51.382;7.074;2023-09-19T10:54:52;99940.22;;;31.54;28.88
80938;BME280;70395;51.382;7.074;2023-09-19T10:57:24;99944.53;;;31.85;28.33
80938;BME280;70395;51.382;7.074;2023-09-19T11:00:22;99934.56;;;31.84;28.40
80938;BME280;70395;51.382;7.074;2023-09-19T11:05:41;99921.38;;;31.95;28.25
80938;BME280;70395;51.382;7.074;2023-09-19T11:08:10;99929.31;;;31.63;28.01
80938;BME280;70395;51.382;7.074;2023-09-19T11:10:48;99933.47;;;31.41;27.86
80938;BME280;70395;51.382;7.074;2023-09-19T11:13:28;99927.63;;;31.43;27.99
80938;BME280;70395;51.382;7.074;2023-09-19T11:27:13;99932.50;;;32.62;26.28
80938;BME280;70395;51.382;7.074;2023-09-19T11:29:40;99936.53;;;33.03;25.83
80938;BME280;70395;51.382;7.074;2023-09-19T11:32:06;99930.16;;;33.31;25.02
80938;BME280;70395;51.382;7.074;2023-09-19T11:34:43;99937.47;;;33.27;25.23
80938;BME280;70395;51.382;7.074;2023-09-19T11:40:07;99935.78;;;33.12;25.40
80938;BME280;70395;51.382;7.074;2023-09-19T11:42:43;99937.34;;;33.46;25.00
80938;BME280;70395;51.382;7.074;2023-09-19T11:48:18;99934.81;;;32.41;25.85
80938;BME280;70395;51.382;7.074;2023-09-19T11:50:45;99926.38;;;31.93;26.15
80938;BME280;70395;51.382;7.074;2023-09-19T11:53:13;99931.28;;;31.82;26.11
80938;BME280;70395;51.382;7.074;2023-09-19T11:55:42;99935.16;;;32.00;25.84
80938;BME280;70395;51.382;7.074;2023-09-19T11:58:09;99933.06;;;31.92;25.87
80938;BME280;70395;51.382;7.074;2023-09-19T12:00:39;99929.38;;;31.58;26.30
80938;BME280;70395;51.382;7.074;2023-09-19T12:03:10;99933.22;;;31.38;26.41
80938;BME280;70395;51.382;7.074;2023-09-19T12:05:37;99936.28;;;31.36;26.82
80938;BME280;70395;51.382;7.074;2023-09-19T12:08:08;99938.22;;;31.35;26.44
80938;BME280;70395;51.382;7.074;2023-09-19T12:10:48;99927.91;;;31.41;26.70
80938;BME280;70395;51.382;7.074;2023-09-19T12:13:18;99918.69;;;31.71;25.82
80938;BME280;70395;51.382;7.074;2023-09-19T12:15:44;99912.97;;;32.00;25.56
80938;BME280;70395;51.382;7.074;2023-09-19T12:18:46;99912.53;;;32.32;25.74
80938;BME280;70395;51.382;7.074;2023-09-19T12:21:30;99913.03;;;32.67;25.08
80938;BME280;70395;51.382;7.074;2023-09-19T12:24:11;99898.69;;;32.93;24.48
80938;BME280;70395;51.382;7.074;2023-09-19T12:26:47;99898.38;;;33.23;23.59
80938;BME280;70395;51.382;7.074;2023-09-19T12:29:21;99907.38;;;33.57;23.20
80938;BME280;70395;51.382;7.074;2023-09-19T12:32:05;99900.69;;;33.96;23.16
80938;BME280;70395;51.382;7.074;2023-09-19T12:34:32;99899.19;;;34.35;22.55
80938;BME280;70395;51.382;7.074;2023-09-19T12:37:10;99900.16;;;34.63;22.01
80938;BME280;70395;51.382;7.074;2023-09-19T12:39:50;99896.38;;;34.90;21.80
80938;BME280;70395;51.382;7.074;2023-09-19T12:42:26;99886.94;;;35.09;21.40
80938;BME280;70395;51.382;7.074;2023-09-19T12:44:58;99890.22;;;35.11;21.28
80938;BME280;70395;51.382;7.074;2023-09-19T12:47:27;99876.28;;;35.20;21.73
80938;BME280;70395;51.382;7.074;2023-09-19T12:50:15;99877.94;;;35.30;21.58
80938;BME280;70395;51.382;7.074;2023-09-19T12:52:52;99886.22;;;35.53;20.95
80938;BME280;70395;51.382;7.074;2023-09-19T12:55:24;99886.03;;;35.49;20.51
80938;BME280;70395;51.382;7.074;2023-09-19T13:00:43;99866.53;;;35.49;20.71
80938;BME280;70395;51.382;7.074;2023-09-19T13:03:39;99868.19;;;35.50;21.03
80938;BME280;70395;51.382;7.074;2023-09-19T13:06:05;99874.91;;;35.58;20.55
80938;BME280;70395;51.382;7.074;2023-09-19T13:08:37;99865.50;;;35.27;20.64
80938;BME280;70395;51.382;7.074;2023-09-19T13:11:17;99865.44;;;34.92;21.33
80938;BME280;70395;51.382;7.074;2023-09-19T13:14:17;99873.88;;;34.78;21.62
80938;BME280;70395;51.382;7.074;2023-09-19T13:19:42;99871.72;;;34.75;21.32
80938;BME280;70395;51.382;7.074;2023-09-19T13:22:43;99883.09;;;34.55;21.43
80938;BME280;70395;51.382;7.074;2023-09-19T13:25:19;99875.56;;;34.24;21.16
80938;BME280;70395;51.382;7.074;2023-09-19T13:27:51;99870.81;;;33.64;21.53
80938;BME280;70395;51.382;7.074;2023-09-19T13:30:20;99871.59;;;33.13;22.36
80938;BME280;70395;51.382;7.074;2023-09-19T13:32:47;99875.44;;;32.89;22.49
80938;BME280;70395;51.382;7.074;2023-09-19T13:35:14;99874.50;;;32.80;22.69
80938;BME280;70395;51.382;7.074;2023-09-19T13:37:41;99870.56;;;32.67;22.92
80938;BME280;70395;51.382;7.074;2023-09-19T13:40:13;99875.69;;;32.59;22.93
80938;BME280;70395;51.382;7.074;2023-09-19T13:42:39;99864.94;;;32.72;23.80
80938;BME280;70395;51.382;7.074;2023-09-19T13:45:06;99875.16;;;32.43;23.56
80938;BME280;70395;51.382;7.074;2023-09-19T13:47:33;99878.59;;;32.01;23.98
80938;BME280;70395;51.382;7.074;2023-09-19T13:50:02;99871.84;;;31.88;23.94
80938;BME280;70395;51.382;7.074;2023-09-19T13:52:32;99863.41;;;31.41;24.45
80938;BME280;70395;51.382;7.074;2023-09-19T13:54:59;99867.28;;;30.96;24.57
80938;BME280;70395;51.382;7.074;2023-09-19T13:57:26;99855.75;;;30.58;25.92